Terminal Aerodrome Forecast
Issued by NWS Portland, OR

Home | Current Version | Previous Version | Text Only | Print | Product List | Glossary On
Versions: 1 2 3 4 5 6 7 8 9 10 11 12 13 14 15 16 17 18 19 20 21 22 23 24 25 26 27 28 29 30 31 32 33 34 35 36 37 38 39 40 41 42 43 44
000
FTUS46 KPQR 290520
TAFPDX
TAF
KPDX 290520Z 2906/3006 VRB04KT P6SM SCT050 OVC120
      TEMPO 2906/2910 -RA
     FM291000 16008KT P6SM -RA SCT035 OVC060
     FM291300 16018G28KT P6SM -RA SCT025 OVC050
     FM291600 19025G35KT P6SM -RA SCT025 OVC050
     FM292200 18017G25KT P6SM -RA SCT025 OVC040
     FM300400 20010KT P6SM -RA OVC040=

USA.gov is the U.S. government's official web portal to all federal, state and local government web resources and services.